Time;durP1;ratioP1;P1;durP2;ratioP2;P2;SDS_P1;SDS_P2;PMS_P1;PMS_P2;Temp;Humidity;BMP_temperature;BMP_pressure;BME280_temperature;BME280_humidity;BME280_pressure;Samples;Min_cycle;Max_cycle;Signal;HPM_P1;HPM_P2
2022/11/25 00:02:18;;;;;;;7.50;3.63;;;10.80;99.90;;;;;;5050860;28;20428;-69
2022/11/25 00:04:44;;;;;;;6.30;3.20;;;10.70;99.90;;;;;;5051382;28;20212;-69
2022/11/25 00:07:10;;;;;;;8.67;3.03;;;10.80;99.90;;;;;;5051983;28;20489;-68
2022/11/25 00:09:36;;;;;;;5.00;3.17;;;10.80;99.90;;;;;;5033530;28;20430;-69
2022/11/25 00:12:01;;;;;;;9.03;3.00;;;10.80;99.90;;;;;;5052254;28;20219;-68
2022/11/25 00:14:27;;;;;;;4.93;3.40;;;10.90;99.90;;;;;;5055052;28;20177;-68
2022/11/25 00:16:53;;;;;;;7.33;3.47;;;10.90;99.90;;;;;;5037250;28;20188;-69
2022/11/25 00:19:18;;;;;;;4.57;2.90;;;11.00;99.90;;;;;;5055193;28;20634;-68
2022/11/25 00:21:44;;;;;;;6.10;3.17;;;11.00;99.90;;;;;;5054921;28;20180;-69
2022/11/25 00:24:13;;;;;;;8.80;3.00;;;10.90;99.90;;;;;;5037692;28;20217;-69
2022/11/25 00:26:39;;;;;;;6.00;2.80;;;10.80;99.90;;;;;;5055340;28;20804;-68
2022/11/25 00:29:07;;;;;;;10.53;3.83;;;10.90;99.90;;;;;;5054840;28;20422;-68
2022/11/25 00:31:35;;;;;;;5.00;3.07;;;10.80;99.90;;;;;;5036955;28;20178;-68
2022/11/25 00:34:00;;;;;;;6.13;4.00;;;10.90;99.90;;;;;;5054965;28;20436;-68
2022/11/25 00:36:28;;;;;;;7.40;3.07;;;11.00;99.90;;;;;;5037320;28;20784;-68
2022/11/25 00:38:56;;;;;;;7.93;3.43;;;10.70;99.90;;;;;;5054557;28;20621;-68
2022/11/25 00:46:56;;;;;;;8.40;3.23;;;11.00;99.90;;;;;;5053686;28;21134;-68
2022/11/25 00:49:22;;;;;;;5.33;3.07;;;10.90;99.90;;;;;;5055239;28;20505;-68
2022/11/25 00:51:48;;;;;;;5.30;2.77;;;10.90;99.90;;;;;;5053500;28;20519;-68
2022/11/25 00:54:14;;;;;;;5.03;2.93;;;10.90;99.90;;;;;;5055198;28;20536;-68
2022/11/25 00:56:40;;;;;;;6.03;3.47;;;11.00;99.90;;;;;;5054264;28;20265;-69
2022/11/25 00:59:06;;;;;;;5.70;3.10;;;11.00;99.90;;;;;;5053431;28;20430;-68
2022/11/25 01:01:32;;;;;;;3.57;2.90;;;11.00;99.90;;;;;;5054377;28;20441;-68
2022/11/25 01:03:58;;;;;;;5.90;3.87;;;11.10;99.90;;;;;;5054257;28;20556;-69
2022/11/25 01:06:23;;;;;;;5.77;3.00;;;11.10;99.90;;;;;;5054529;28;21039;-69
2022/11/25 01:08:50;;;;;;;3.80;3.10;;;11.00;99.90;;;;;;5053941;28;20274;-69
2022/11/25 01:11:20;;;;;;;10.93;3.37;;;11.10;99.90;;;;;;5054850;28;20256;-68
2022/11/25 01:13:45;;;;;;;8.40;4.40;;;11.00;99.90;;;;;;5053738;28;20440;-68
2022/11/25 01:16:14;;;;;;;7.07;2.97;;;11.10;99.90;;;;;;5054772;28;20421;-68
2022/11/25 01:18:40;;;;;;;5.07;3.13;;;11.10;99.90;;;;;;5053792;28;20250;-69
2022/11/25 01:21:21;;;;;;;5.13;2.60;;;11.10;99.90;;;;;;5054742;28;20412;-69
2022/11/25 01:23:48;;;;;;;6.33;3.40;;;11.10;99.90;;;;;;5053940;28;20771;-68
2022/11/25 01:26:16;;;;;;;7.60;2.90;;;11.10;99.90;;;;;;5053770;28;20510;-68
2022/11/25 01:28:42;;;;;;;6.70;3.00;;;10.80;99.90;;;;;;5052930;28;20419;-69
2022/11/25 01:31:10;;;;;;;7.20;3.20;;;10.90;99.90;;;;;;5052848;28;20526;-68
2022/11/25 01:33:36;;;;;;;5.70;3.17;;;11.00;99.90;;;;;;5054471;28;20182;-69
2022/11/25 01:36:07;;;;;;;6.20;4.00;;;11.00;99.90;;;;;;5053052;28;20443;-68
2022/11/25 01:38:33;;;;;;;7.73;3.40;;;11.00;99.90;;;;;;5036497;28;20411;-68
2022/11/25 01:40:59;;;;;;;5.53;3.30;;;11.00;99.90;;;;;;5052952;28;21226;-68
2022/11/25 01:43:26;;;;;;;7.10;3.33;;;11.00;99.90;;;;;;5054271;28;20470;-68
2022/11/25 01:45:58;;;;;;;8.30;3.73;;;10.80;99.90;;;;;;5053602;28;20422;-68
2022/11/25 01:48:48;;;;;;;9.37;3.67;;;10.80;99.90;;;;;;5054208;28;20428;-68
2022/11/25 01:51:39;;;;;;;7.90;3.10;;;10.70;99.90;;;;;;5052442;28;20430;-68
2022/11/25 01:54:08;;;;;;;7.57;3.77;;;10.60;99.90;;;;;;5054134;28;20764;-68
2022/11/25 01:56:36;;;;;;;7.33;3.70;;;10.60;99.90;;;;;;5053988;28;20423;-69
2022/11/25 01:59:02;;;;;;;6.93;3.60;;;10.60;99.90;;;;;;5052326;28;20427;-68
2022/11/25 02:01:28;;;;;;;10.73;3.53;;;10.60;99.90;;;;;;5053945;28;20558;-69
2022/11/25 02:03:57;;;;;;;7.77;3.50;;;10.70;99.90;;;;;;5035399;28;20231;-69
2022/11/25 02:06:26;;;;;;;5.63;4.30;;;10.70;99.90;;;;;;5053739;28;20187;-69
2022/11/25 02:09:00;;;;;;;8.90;4.30;;;10.80;99.90;;;;;;5052567;28;20501;-69
2022/11/25 02:11:29;;;;;;;8.00;3.80;;;10.80;99.90;;;;;;5053988;28;20403;-68
2022/11/25 02:13:56;;;;;;;6.37;3.60;;;10.50;99.90;;;;;;5053034;28;20558;-69
2022/11/25 02:16:22;;;;;;;8.73;3.47;;;10.60;99.90;;;;;;5053668;28;20442;-68
2022/11/25 02:18:49;;;;;;;6.80;3.10;;;10.60;99.90;;;;;;5052003;28;20830;-68
2022/11/25 02:21:19;;;;;;;10.30;4.47;;;10.60;99.90;;;;;;5053764;28;20180;-68
2022/11/25 02:24:45;;;;;;;4.23;3.40;;;10.70;99.90;;;;;;5034315;28;20544;-69
2022/11/25 02:27:12;;;;;;;7.53;3.67;;;10.80;99.90;;;;;;4972321;28;20535;-68
2022/11/25 02:29:38;;;;;;;7.27;3.73;;;10.70;99.90;;;;;;4971448;28;20437;-68
2022/11/25 02:32:05;;;;;;;6.70;3.73;;;10.50;99.90;;;;;;4971796;28;20934;-69
2022/11/25 02:34:31;;;;;;;6.20;4.10;;;10.50;99.90;;;;;;4972226;28;20531;-69
2022/11/25 02:36:58;;;;;;;6.80;4.03;;;10.70;99.90;;;;;;4970506;28;20444;-69
2022/11/25 02:39:24;;;;;;;3.93;3.00;;;10.70;99.90;;;;;;4971390;28;20575;-69
2022/11/25 02:41:54;;;;;;;5.27;3.30;;;10.50;99.90;;;;;;4955221;28;20428;-69
2022/11/25 02:44:20;;;;;;;10.50;3.80;;;10.60;99.90;;;;;;4955972;28;20502;-68
2022/11/25 02:46:46;;;;;;;5.90;3.40;;;10.70;99.90;;;;;;4970605;28;20904;-69
2022/11/25 02:49:12;;;;;;;4.70;3.17;;;10.70;99.90;;;;;;4972022;28;21056;-69
2022/11/25 02:51:42;;;;;;;5.60;3.43;;;10.60;99.90;;;;;;4971991;28;20190;-69
2022/11/25 02:54:09;;;;;;;5.93;3.30;;;10.70;99.90;;;;;;4970897;28;20652;-68
2022/11/25 02:56:35;;;;;;;6.90;3.70;;;10.70;99.90;;;;;;4971296;28;20501;-69
2022/11/25 02:59:04;;;;;;;5.90;2.93;;;10.90;99.90;;;;;;5047720;28;20545;-69
2022/11/25 03:01:30;;;;;;;7.23;3.80;;;10.60;99.90;;;;;;5052771;28;20441;-69
2022/11/25 03:03:56;;;;;;;6.63;3.33;;;10.50;99.90;;;;;;5049153;28;21047;-69
2022/11/25 03:06:22;;;;;;;5.13;3.17;;;10.60;99.90;;;;;;5034713;28;20469;-69
2022/11/25 03:08:48;;;;;;;3.90;3.50;;;10.80;99.90;;;;;;5033400;28;20523;-69
2022/11/25 03:11:14;;;;;;;6.43;3.60;;;10.60;99.90;;;;;;5052594;28;20409;-69
2022/11/25 03:13:40;;;;;;;6.03;4.30;;;10.70;99.90;;;;;;5051930;28;20182;-68
2022/11/25 03:16:06;;;;;;;4.67;3.43;;;10.80;99.90;;;;;;5051929;28;20265;-69
2022/11/25 03:18:32;;;;;;;8.23;3.93;;;10.70;99.90;;;;;;5034900;28;20415;-68
2022/11/25 03:20:58;;;;;;;7.13;4.70;;;10.70;99.90;;;;;;5051707;28;20893;-69
2022/11/25 03:23:24;;;;;;;7.27;4.17;;;10.80;99.90;;;;;;5052452;28;20441;-69
2022/11/25 03:25:50;;;;;;;7.10;3.90;;;10.70;99.90;;;;;;5051873;28;20179;-69
2022/11/25 03:28:16;;;;;;;4.13;3.63;;;10.60;99.90;;;;;;5049795;28;20927;-68
2022/11/25 03:30:42;;;;;;;9.10;3.63;;;10.60;99.90;;;;;;5052420;28;20182;-68
2022/11/25 03:33:08;;;;;;;9.70;4.27;;;10.60;99.90;;;;;;5034020;28;20185;-69
2022/11/25 03:35:33;;;;;;;5.77;3.40;;;10.60;99.90;;;;;;5051766;28;20425;-68
2022/11/25 03:37:59;;;;;;;11.50;4.10;;;10.70;99.90;;;;;;5051934;28;20628;-69
2022/11/25 03:40:25;;;;;;;5.67;4.27;;;10.60;99.90;;;;;;5052333;28;20650;-69
2022/11/25 03:42:51;;;;;;;6.17;3.47;;;10.60;99.90;;;;;;5051778;28;20177;-69
2022/11/25 03:45:17;;;;;;;4.10;3.43;;;10.70;99.90;;;;;;5051619;28;20489;-69
2022/11/25 03:47:44;;;;;;;8.70;3.60;;;10.80;99.90;;;;;;5052243;28;20630;-69
2022/11/25 03:50:12;;;;;;;3.90;3.43;;;10.90;99.90;;;;;;5054242;28;20417;-68
2022/11/25 03:52:37;;;;;;;5.90;3.57;;;11.00;99.90;;;;;;5036433;28;20463;-69
2022/11/25 03:55:05;;;;;;;4.10;3.37;;;11.10;99.90;;;;;;5035556;28;20451;-69
2022/11/25 03:57:31;;;;;;;6.10;3.10;;;11.20;99.90;;;;;;5055391;28;20265;-69
2022/11/25 03:59:57;;;;;;;3.63;3.20;;;11.20;99.90;;;;;;5055301;28;20442;-69
2022/11/25 04:02:23;;;;;;;6.37;3.53;;;11.20;99.90;;;;;;5018395;28;20479;-69
2022/11/25 04:04:49;;;;;;;3.70;3.33;;;11.30;99.90;;;;;;5053654;28;20251;-70
2022/11/25 04:07:14;;;;;;;6.53;3.80;;;11.30;99.90;;;;;;5037347;28;20652;-69
2022/11/25 04:09:40;;;;;;;10.30;5.87;;;11.40;99.90;;;;;;5055780;28;20200;-69
2022/11/25 04:14:50;;;;;;;6.40;4.07;;;11.60;99.90;;;;;;5055281;28;20176;-72
2022/11/25 04:17:15;;;;;;;6.70;4.30;;;11.60;99.90;;;;;;5055143;28;20406;-69
2022/11/25 04:19:41;;;;;;;12.00;5.50;;;11.70;99.90;;;;;;5052376;28;20218;-69
2022/11/25 04:22:07;;;;;;;5.50;3.90;;;11.70;99.90;;;;;;5054670;28;20183;-69
2022/11/25 04:24:34;;;;;;;5.60;4.70;;;11.70;99.90;;;;;;5054315;28;20292;-69
2022/11/25 04:27:00;;;;;;;5.70;4.93;;;11.70;99.90;;;;;;5054149;28;20897;-71
2022/11/25 04:29:25;;;;;;;7.63;3.90;;;11.80;99.90;;;;;;5054836;28;20481;-69
2022/11/25 04:31:51;;;;;;;5.10;3.47;;;11.80;99.90;;;;;;5054383;28;20234;-72
2022/11/25 04:34:17;;;;;;;4.10;3.30;;;11.80;99.90;;;;;;5054932;28;20201;-69
2022/11/25 04:36:42;;;;;;;6.50;3.27;;;11.80;99.90;;;;;;5055187;28;20172;-69
2022/11/25 04:39:08;;;;;;;5.83;3.90;;;11.80;99.90;;;;;;5054437;28;20191;-69
2022/11/25 04:41:33;;;;;;;4.13;3.70;;;11.80;99.90;;;;;;5055122;28;20175;-69
2022/11/25 04:43:59;;;;;;;5.17;3.37;;;11.60;99.90;;;;;;5053492;28;20252;-69
2022/11/25 04:46:36;;;;;;;3.50;2.60;;;11.40;99.90;;;;;;5050123;28;20175;-71
2022/11/25 04:49:04;;;;;;;4.50;3.07;;;11.30;99.90;;;;;;5045279;28;20224;-69
2022/11/25 04:51:30;;;;;;;8.40;4.40;;;11.30;99.90;;;;;;5042455;28;20440;-69
2022/11/25 04:53:56;;;;;;;8.47;3.73;;;11.30;99.90;;;;;;5043376;28;20844;-70
2022/11/25 04:56:22;;;;;;;5.73;3.60;;;11.50;99.90;;;;;;5052925;28;20510;-69
2022/11/25 05:01:40;;;;;;;7.90;4.00;;;11.50;99.90;;;;;;5030163;28;20230;-70
2022/11/25 05:04:05;;;;;;;7.37;4.27;;;11.40;99.90;;;;;;5054240;28;21028;-69
2022/11/25 05:06:31;;;;;;;5.33;3.70;;;11.40;99.90;;;;;;5048410;28;20185;-70
2022/11/25 05:08:57;;;;;;;6.40;4.63;;;11.50;99.90;;;;;;5052982;28;20242;-70
2022/11/25 05:11:23;;;;;;;5.87;3.60;;;11.50;99.90;;;;;;5054629;28;20545;-69
2022/11/25 05:13:48;;;;;;;9.83;4.80;;;11.50;99.90;;;;;;5054444;28;20256;-69
2022/11/25 05:16:14;;;;;;;6.47;4.60;;;11.50;99.90;;;;;;5050138;28;20182;-69
2022/11/25 05:18:40;;;;;;;6.13;3.80;;;11.50;99.90;;;;;;5012876;28;20544;-69
2022/11/25 05:21:06;;;;;;;7.23;3.70;;;11.40;99.90;;;;;;5053426;28;20189;-69
2022/11/25 05:23:32;;;;;;;9.60;5.13;;;11.40;99.90;;;;;;5054681;28;20239;-69
2022/11/25 05:25:59;;;;;;;9.40;4.83;;;11.50;99.90;;;;;;5053958;28;20410;-70
2022/11/25 05:28:26;;;;;;;6.13;4.17;;;11.40;99.90;;;;;;5054184;28;20269;-69
2022/11/25 05:30:52;;;;;;;9.23;4.60;;;11.50;99.90;;;;;;4981793;28;20845;-71
2022/11/25 05:33:17;;;;;;;3.97;3.67;;;11.60;99.90;;;;;;5034626;28;20409;-69
2022/11/25 05:35:43;;;;;;;6.27;4.37;;;11.50;99.90;;;;;;5037707;28;20685;-69
2022/11/25 05:38:09;;;;;;;6.93;5.00;;;11.60;99.90;;;;;;5053279;28;20177;-69
2022/11/25 05:40:34;;;;;;;5.87;3.80;;;11.70;99.90;;;;;;5053519;28;20173;-69
2022/11/25 05:43:00;;;;;;;7.70;4.30;;;11.70;99.90;;;;;;5053634;28;20690;-69
2022/11/25 05:45:26;;;;;;;5.30;3.80;;;11.70;99.90;;;;;;5054351;28;20232;-69
2022/11/25 05:47:52;;;;;;;5.80;3.70;;;11.60;99.90;;;;;;5034581;28;20430;-69
2022/11/25 05:50:17;;;;;;;4.17;3.37;;;11.60;99.90;;;;;;5053643;28;20185;-69
2022/11/25 05:52:43;;;;;;;4.97;3.80;;;11.60;99.90;;;;;;5054336;28;20177;-69
2022/11/25 05:55:09;;;;;;;8.93;4.10;;;11.60;99.90;;;;;;5052811;28;20627;-69
2022/11/25 05:57:34;;;;;;;7.00;3.43;;;11.70;99.90;;;;;;5053099;28;20622;-69
2022/11/25 06:00:02;;;;;;;6.00;3.03;;;11.40;99.90;;;;;;5052248;28;20180;-69
2022/11/25 06:02:28;;;;;;;7.07;3.43;;;11.40;99.90;;;;;;5043266;28;20202;-69
2022/11/25 06:04:54;;;;;;;6.23;3.47;;;11.40;99.90;;;;;;5053612;28;20499;-71
2022/11/25 06:07:19;;;;;;;7.70;2.97;;;11.30;99.90;;;;;;5048432;28;20228;-69
2022/11/25 06:09:45;;;;;;;3.73;3.20;;;11.40;99.90;;;;;;5050945;28;20186;-69
2022/11/25 06:12:11;;;;;;;7.30;3.50;;;11.50;99.90;;;;;;5045017;28;20614;-71
2022/11/25 06:14:36;;;;;;;9.20;3.23;;;11.50;99.90;;;;;;5052551;28;20184;-69
2022/11/25 06:17:03;;;;;;;6.93;4.30;;;11.50;99.90;;;;;;5035668;28;20180;-69
2022/11/25 06:19:29;;;;;;;6.27;4.23;;;11.50;99.90;;;;;;5043604;28;20184;-69
2022/11/25 06:21:54;;;;;;;5.10;4.27;;;11.60;99.90;;;;;;5038865;28;20430;-69
2022/11/25 06:24:20;;;;;;;5.67;3.50;;;11.60;99.90;;;;;;5043272;28;20206;-69
2022/11/25 06:26:46;;;;;;;5.47;3.27;;;11.60;99.90;;;;;;5050936;28;20180;-69
2022/11/25 06:29:11;;;;;;;6.73;3.43;;;11.70;99.90;;;;;;5050946;28;20211;-69
2022/11/25 06:31:37;;;;;;;4.17;3.67;;;11.60;99.90;;;;;;5046901;28;20172;-71
2022/11/25 06:34:05;;;;;;;4.37;3.73;;;11.70;99.90;;;;;;5044660;28;20181;-69
2022/11/25 06:36:31;;;;;;;4.33;3.30;;;11.70;99.90;;;;;;5049218;28;20188;-68
2022/11/25 06:38:56;;;;;;;6.27;3.10;;;11.70;99.90;;;;;;5048601;28;20429;-71
2022/11/25 06:41:22;;;;;;;4.13;3.30;;;11.40;99.90;;;;;;5051539;28;20200;-68
2022/11/25 06:43:48;;;;;;;6.77;3.10;;;11.40;99.90;;;;;;5053138;28;20268;-69
2022/11/25 06:46:16;;;;;;;5.50;3.77;;;11.40;99.90;;;;;;5051608;28;20532;-69
2022/11/25 06:48:42;;;;;;;11.83;4.93;;;11.40;99.90;;;;;;5052492;28;20929;-69
2022/11/25 06:51:11;;;;;;;8.33;4.00;;;11.40;99.90;;;;;;5050650;28;20431;-69
2022/11/25 06:53:38;;;;;;;7.07;3.83;;;11.40;99.90;;;;;;5051605;28;20514;-69
2022/11/25 06:56:18;;;;;;;5.33;4.20;;;11.20;99.90;;;;;;5052362;28;20750;-69
2022/11/25 06:58:45;;;;;;;3.60;3.30;;;11.10;99.90;;;;;;5051869;28;20428;-69
2022/11/25 07:01:13;;;;;;;10.03;4.90;;;11.10;99.90;;;;;;5034552;28;20513;-69
2022/11/25 07:03:39;;;;;;;5.60;5.10;;;11.30;99.90;;;;;;5049601;28;20446;-69
2022/11/25 07:06:05;;;;;;;8.10;4.53;;;11.20;99.90;;;;;;5052362;28;20408;-69
2022/11/25 07:08:31;;;;;;;6.83;4.40;;;11.20;99.90;;;;;;5052414;28;20480;-68
2022/11/25 07:11:10;;;;;;;7.50;5.00;;;11.20;99.90;;;;;;5040957;28;20522;-68
2022/11/25 07:13:36;;;;;;;5.60;4.10;;;11.30;99.90;;;;;;5032684;28;20181;-68
2022/11/25 07:16:03;;;;;;;4.73;3.90;;;11.40;99.90;;;;;;5049756;28;20875;-69
2022/11/25 07:18:31;;;;;;;4.40;4.00;;;11.30;99.90;;;;;;5050418;28;20214;-69
2022/11/25 07:21:05;;;;;;;5.30;4.27;;;11.40;99.90;;;;;;5049111;28;20436;-68
2022/11/25 07:23:32;;;;;;;10.80;4.80;;;11.40;99.90;;;;;;5043408;28;20899;-69
2022/11/25 07:26:25;;;;;;;10.43;4.80;;;11.40;99.90;;;;;;5048097;28;20437;-69
2022/11/25 07:28:52;;;;;;;5.77;4.23;;;11.50;99.90;;;;;;5051571;28;20448;-69
2022/11/25 07:31:24;;;;;;;8.00;4.20;;;11.50;99.90;;;;;;5049508;28;20460;-69
2022/11/25 07:33:57;;;;;;;5.10;3.80;;;11.50;99.90;;;;;;5050245;28;20454;-69
2022/11/25 07:36:24;;;;;;;5.90;3.97;;;11.50;99.90;;;;;;5016820;28;20529;-69
2022/11/25 07:38:50;;;;;;;10.30;5.87;;;11.60;99.90;;;;;;5050118;28;20507;-70
2022/11/25 07:41:18;;;;;;;8.57;6.87;;;11.90;99.90;;;;;;5049877;28;20480;-70
2022/11/25 07:43:50;;;;;;;5.60;4.40;;;12.80;99.90;;;;;;5051515;28;20484;-71
2022/11/25 07:46:18;;;;;;;6.87;4.70;;;13.50;99.90;;;;;;5039635;28;20506;-70
2022/11/25 07:48:45;;;;;;;5.40;4.90;;;14.00;99.90;;;;;;5052085;28;20484;-70
2022/11/25 07:51:19;;;;;;;10.00;6.23;;;14.60;99.90;;;;;;5051032;28;20432;-70
2022/11/25 07:53:46;;;;;;;6.23;4.00;;;15.10;99.90;;;;;;5033821;28;20813;-70
2022/11/25 07:56:13;;;;;;;6.43;5.10;;;15.40;99.90;;;;;;5050744;28;20432;-70
2022/11/25 07:58:39;;;;;;;6.23;5.17;;;15.50;99.90;;;;;;5051028;28;20734;-71
2022/11/25 08:01:06;;;;;;;9.40;6.30;;;15.70;99.90;;;;;;5045202;28;20421;-71
2022/11/25 08:03:45;;;;;;;6.90;6.23;;;15.80;99.90;;;;;;5045170;28;20425;-70
2022/11/25 08:06:13;;;;;;;4.60;4.13;;;16.00;99.90;;;;;;5038165;28;20438;-70
2022/11/25 08:08:40;;;;;;;5.70;4.40;;;16.10;99.90;;;;;;5050803;28;20455;-71
2022/11/25 08:11:18;;;;;;;7.63;5.87;;;16.20;99.90;;;;;;5045987;28;20414;-70
2022/11/25 08:13:44;;;;;;;7.00;5.40;;;16.20;99.90;;;;;;5050401;28;20436;-70
2022/11/25 08:16:12;;;;;;;4.60;4.17;;;16.30;99.90;;;;;;5033460;28;20435;-72
2022/11/25 08:18:38;;;;;;;5.50;5.00;;;16.40;99.90;;;;;;5021848;28;20466;-71
2022/11/25 08:21:08;;;;;;;5.93;4.53;;;16.40;99.90;;;;;;5047492;28;20445;-71
2022/11/25 08:23:35;;;;;;;5.30;4.80;;;16.40;99.90;;;;;;5045987;28;20434;-69
2022/11/25 08:26:09;;;;;;;5.30;4.80;;;16.00;99.90;;;;;;5050847;28;20904;-69
2022/11/25 08:28:35;;;;;;;5.57;5.07;;;15.60;99.90;;;;;;5047438;28;20434;-69
2022/11/25 08:31:25;;;;;;;6.20;4.50;;;15.40;99.90;;;;;;5042847;28;20463;-71
2022/11/25 08:33:52;;;;;;;7.20;4.40;;;15.10;99.90;;;;;;5029117;28;20846;-69
2022/11/25 08:36:19;;;;;;;6.07;4.53;;;14.80;99.90;;;;;;5035136;28;20421;-69
2022/11/25 08:38:46;;;;;;;4.87;3.87;;;14.50;99.90;;;;;;5051718;28;20479;-69
2022/11/25 08:41:19;;;;;;;5.10;4.60;;;14.20;99.90;;;;;;5043510;28;20428;-69
2022/11/25 08:43:45;;;;;;;5.77;4.20;;;14.00;99.90;;;;;;5049606;28;20542;-69
2022/11/25 08:46:22;;;;;;;4.97;4.57;;;13.80;99.90;;;;;;5047233;28;20994;-69
2022/11/25 08:48:48;;;;;;;5.77;4.50;;;13.60;99.90;;;;;;5023285;28;20181;-69
2022/11/25 08:51:20;;;;;;;6.93;4.07;;;13.40;99.90;;;;;;5048861;28;20936;-69
2022/11/25 08:53:52;;;;;;;6.70;4.53;;;13.20;99.90;;;;;;5017721;28;20422;-69
2022/11/25 08:56:20;;;;;;;6.27;3.60;;;13.10;99.90;;;;;;5034482;28;20414;-69
2022/11/25 08:58:48;;;;;;;6.03;3.87;;;13.00;99.90;;;;;;5035080;28;20913;-69
2022/11/25 09:01:15;;;;;;;5.20;4.27;;;12.90;99.90;;;;;;4972948;28;20524;-69
2022/11/25 09:03:44;;;;;;;5.23;4.50;;;12.80;99.90;;;;;;4973693;28;20578;-69
2022/11/25 09:06:10;;;;;;;6.00;4.30;;;12.80;99.90;;;;;;4973240;28;20473;-69
2022/11/25 09:08:38;;;;;;;5.03;4.27;;;13.00;99.90;;;;;;4982470;28;20465;-69
2022/11/25 09:11:05;;;;;;;7.10;4.20;;;13.60;99.90;;;;;;4977010;28;20438;-69
2022/11/25 09:13:31;;;;;;;6.60;4.20;;;14.40;99.90;;;;;;4993262;28;20504;-69
2022/11/25 09:15:57;;;;;;;4.53;4.00;;;15.30;99.90;;;;;;4992949;28;20943;-69
2022/11/25 09:18:25;;;;;;;4.60;4.20;;;15.70;99.90;;;;;;4975590;28;20270;-69
2022/11/25 09:20:52;;;;;;;5.23;4.20;;;15.70;99.90;;;;;;4992654;28;20435;-69
2022/11/25 09:23:19;;;;;;;8.03;4.70;;;15.50;99.90;;;;;;4992547;28;20429;-69
2022/11/25 09:25:55;;;;;;;5.10;4.70;;;15.40;99.90;;;;;;4991715;28;20494;-69
2022/11/25 09:28:22;;;;;;;6.60;4.10;;;15.40;99.90;;;;;;4989925;28;20511;-69
2022/11/25 09:30:48;;;;;;;6.03;5.40;;;15.90;99.90;;;;;;4993061;28;20426;-69
2022/11/25 09:33:17;;;;;;;5.10;4.60;;;16.70;99.90;;;;;;5049081;28;20505;-69
2022/11/25 09:35:43;;;;;;;4.87;4.37;;;17.70;98.50;;;;;;5033832;28;20428;-70
2022/11/25 09:38:09;;;;;;;5.20;4.90;;;18.50;96.20;;;;;;5052841;28;20942;-72
2022/11/25 09:40:40;;;;;;;4.77;4.37;;;18.90;94.40;;;;;;5053912;28;20252;-69
2022/11/25 09:46:41;;;;;;;5.33;4.60;;;18.80;91.80;;;;;;5014640;28;20785;-69
2022/11/25 09:49:46;;;;;;;5.07;4.57;;;18.50;93.20;;;;;;5039993;28;20535;-69
2022/11/25 09:52:15;;;;;;;5.30;4.80;;;18.60;93.30;;;;;;5031419;28;20437;-69
2022/11/25 09:54:46;;;;;;;4.00;3.60;;;18.50;93.20;;;;;;5033862;28;20417;-70
2022/11/25 09:57:18;;;;;;;5.60;4.80;;;18.30;93.50;;;;;;5031733;28;20420;-69
2022/11/25 10:00:17;;;;;;;5.07;3.80;;;18.10;93.40;;;;;;4987879;28;20822;-69
2022/11/25 10:02:58;;;;;;;4.03;3.70;;;17.90;93.90;;;;;;5000874;28;20483;-70
2022/11/25 10:05:58;;;;;;;5.10;4.07;;;17.70;94.60;;;;;;5037352;28;20955;-69
2022/11/25 10:08:28;;;;;;;7.27;5.20;;;17.50;95.30;;;;;;5035125;28;20497;-69
2022/11/25 10:11:15;;;;;;;4.53;3.80;;;17.20;95.80;;;;;;5054080;28;20457;-69
2022/11/25 10:14:00;;;;;;;4.90;4.37;;;16.90;96.60;;;;;;5053838;28;20419;-69
2022/11/25 10:16:51;;;;;;;4.80;4.00;;;16.60;97.80;;;;;;5034071;28;20440;-69
2022/11/25 10:19:29;;;;;;;5.20;3.90;;;16.20;98.50;;;;;;5033273;28;20417;-69
2022/11/25 10:21:55;;;;;;;5.93;4.10;;;15.90;99.80;;;;;;5033893;28;20747;-69
2022/11/25 10:24:20;;;;;;;6.57;4.13;;;15.90;99.90;;;;;;5033053;28;20558;-69
2022/11/25 10:27:00;;;;;;;3.90;3.70;;;15.80;99.90;;;;;;5015542;28;20625;-69
2022/11/25 10:29:29;;;;;;;6.27;4.37;;;15.80;99.90;;;;;;5032485;28;20745;-69
2022/11/25 10:32:25;;;;;;;5.77;3.47;;;15.80;99.90;;;;;;5033367;28;20400;-68
2022/11/25 10:35:09;;;;;;;4.27;3.23;;;15.90;99.90;;;;;;5049024;28;20937;-68
2022/11/25 10:37:40;;;;;;;5.10;4.10;;;16.10;99.90;;;;;;5053399;28;20754;-69
2022/11/25 10:40:14;;;;;;;6.57;3.90;;;16.40;99.90;;;;;;5053275;28;20770;-69
2022/11/25 10:42:40;;;;;;;5.80;3.50;;;16.60;99.00;;;;;;5032373;28;20435;-69
2022/11/25 10:45:07;;;;;;;4.80;3.83;;;16.60;97.90;;;;;;5049455;28;20503;-69
2022/11/25 10:47:35;;;;;;;4.83;4.23;;;16.40;97.40;;;;;;5032501;28;20537;-69
2022/11/25 10:50:41;;;;;;;5.70;4.13;;;16.30;98.20;;;;;;5033656;28;20434;-69
2022/11/25 10:53:24;;;;;;;6.50;4.10;;;16.10;98.70;;;;;;5033082;28;20783;-69
2022/11/25 10:56:03;;;;;;;4.27;3.90;;;15.80;99.90;;;;;;5015522;28;20986;-69
2022/11/25 10:58:34;;;;;;;5.53;4.30;;;15.60;99.90;;;;;;5032352;28;20440;-69
2022/11/25 11:01:22;;;;;;;4.93;4.03;;;15.40;99.90;;;;;;5032733;28;20825;-69
2022/11/25 11:04:04;;;;;;;4.17;3.87;;;15.20;99.90;;;;;;5036782;28;20860;-69
2022/11/25 11:06:42;;;;;;;5.10;4.07;;;15.10;99.90;;;;;;5052225;28;20401;-69
2022/11/25 11:09:37;;;;;;;3.90;3.60;;;15.10;99.90;;;;;;5051192;28;20903;-69
2022/11/25 11:12:13;;;;;;;4.10;3.70;;;14.90;99.90;;;;;;5052473;28;20429;-69
2022/11/25 11:14:39;;;;;;;8.57;3.80;;;14.90;99.90;;;;;;5051713;28;20433;-69
2022/11/25 11:17:05;;;;;;;5.60;3.33;;;14.80;99.90;;;;;;5034630;28;20473;-69
2022/11/25 11:19:31;;;;;;;7.53;2.97;;;14.80;99.90;;;;;;5051806;28;20502;-69
2022/11/25 11:22:14;;;;;;;5.23;4.10;;;14.80;99.90;;;;;;5052650;28;20176;-69
2022/11/25 11:24:41;;;;;;;3.80;3.40;;;14.80;99.90;;;;;;5034182;28;20565;-69
2022/11/25 11:27:23;;;;;;;7.27;4.20;;;15.00;99.90;;;;;;5052614;28;20404;-69
2022/11/25 11:30:13;;;;;;;4.00;3.30;;;15.10;99.90;;;;;;5052854;28;20572;-69
2022/11/25 11:32:43;;;;;;;5.93;4.03;;;15.20;99.90;;;;;;5052386;28;20843;-69
2022/11/25 11:35:47;;;;;;;6.67;3.70;;;15.20;99.90;;;;;;5052612;28;20417;-69
2022/11/25 11:38:24;;;;;;;7.13;4.10;;;15.10;99.90;;;;;;5052278;28;20524;-69
2022/11/25 11:40:57;;;;;;;5.60;4.10;;;15.10;99.90;;;;;;5051488;28;20411;-69
2022/11/25 11:44:00;;;;;;;4.33;3.93;;;15.00;99.90;;;;;;5032015;28;20402;-69
2022/11/25 11:46:40;;;;;;;5.40;3.50;;;14.90;99.90;;;;;;5047840;28;20435;-69
2022/11/25 11:49:50;;;;;;;4.27;3.77;;;14.90;99.90;;;;;;5052443;28;20452;-69
2022/11/25 11:52:40;;;;;;;5.40;4.00;;;14.90;99.90;;;;;;5042096;28;20435;-70
2022/11/25 11:55:39;;;;;;;6.13;4.33;;;14.80;99.90;;;;;;5052364;28;20408;-69
2022/11/25 11:58:41;;;;;;;5.37;4.37;;;14.70;99.90;;;;;;5051574;28;20427;-68
2022/11/25 12:01:06;;;;;;;10.60;4.73;;;14.70;99.90;;;;;;5052162;28;20909;-69
2022/11/25 12:03:57;;;;;;;5.57;4.70;;;14.70;99.90;;;;;;5051576;28;20417;-69
2022/11/25 12:06:26;;;;;;;6.13;4.70;;;14.70;99.90;;;;;;5050861;28;20702;-69
2022/11/25 12:09:00;;;;;;;6.87;4.53;;;14.70;99.90;;;;;;5000112;28;20522;-69
2022/11/25 12:11:36;;;;;;;5.63;5.03;;;14.80;99.90;;;;;;5037329;28;20515;-69
2022/11/25 12:14:05;;;;;;;7.80;4.60;;;14.70;99.90;;;;;;5055939;28;20907;-69
2022/11/25 12:16:49;;;;;;;6.00;4.77;;;14.70;99.90;;;;;;5053821;28;20585;-69
2022/11/25 12:19:38;;;;;;;5.73;4.07;;;14.70;99.90;;;;;;5054826;28;20439;-69
2022/11/25 12:22:25;;;;;;;8.30;4.50;;;14.80;99.90;;;;;;5016903;28;20420;-69
2022/11/25 12:25:44;;;;;;;8.40;4.63;;;14.80;99.90;;;;;;5054346;28;20463;-69
2022/11/25 12:28:39;;;;;;;8.50;5.20;;;14.90;99.90;;;;;;5022395;28;20445;-69
2022/11/25 12:31:30;;;;;;;5.43;3.90;;;14.90;99.90;;;;;;5044848;28;20429;-69
2022/11/25 12:34:20;;;;;;;5.00;4.13;;;15.00;99.90;;;;;;5055805;28;20766;-69
2022/11/25 12:36:47;;;;;;;6.23;4.70;;;15.00;99.90;;;;;;5054381;28;20429;-69
2022/11/25 12:39:41;;;;;;;9.43;4.80;;;15.00;99.90;;;;;;5055474;28;20509;-69
2022/11/25 12:42:19;;;;;;;7.20;4.60;;;15.10;99.90;;;;;;5055684;28;20397;-69
2022/11/25 12:45:10;;;;;;;7.23;4.40;;;15.10;99.90;;;;;;5035566;28;20459;-69
2022/11/25 12:47:35;;;;;;;8.53;4.40;;;15.00;99.90;;;;;;5034847;28;20523;-69
2022/11/25 12:50:01;;;;;;;6.57;4.10;;;14.90;99.90;;;;;;5045042;28;20985;-69
2022/11/25 12:52:59;;;;;;;7.33;4.63;;;14.90;99.90;;;;;;5034852;28;20172;-69
2022/11/25 12:55:27;;;;;;;6.40;4.53;;;14.80;99.90;;;;;;5034830;28;20492;-69
2022/11/25 12:58:08;;;;;;;6.97;4.77;;;14.70;99.90;;;;;;5035556;28;20413;-69
2022/11/25 13:01:11;;;;;;;6.17;4.43;;;14.70;99.90;;;;;;5034665;28;20860;-69
2022/11/25 13:03:39;;;;;;;11.90;4.40;;;14.70;99.90;;;;;;5037680;28;20748;-69
2022/11/25 13:06:33;;;;;;;7.83;4.80;;;14.70;99.90;;;;;;5052198;28;20957;-68
2022/11/25 13:09:17;;;;;;;7.40;4.87;;;14.70;99.90;;;;;;5053524;28;20449;-68
2022/11/25 13:11:52;;;;;;;6.30;4.93;;;14.80;99.90;;;;;;5049747;28;20429;-69
2022/11/25 13:14:55;;;;;;;5.23;4.50;;;14.80;99.90;;;;;;5055172;28;20405;-68
2022/11/25 13:17:22;;;;;;;8.97;4.90;;;14.80;99.90;;;;;;5006429;28;20436;-69
2022/11/25 13:19:48;;;;;;;6.83;5.37;;;14.70;99.90;;;;;;5052745;28;20438;-69
2022/11/25 13:22:17;;;;;;;5.50;4.63;;;14.70;99.90;;;;;;5048962;28;20467;-68